Time;durP1;ratioP1;P1;durP2;ratioP2;P2;SDS_P1;SDS_P2;PMS_P1;PMS_P2;Temp;Humidity;BMP_temperature;BMP_pressure;BME280_temperature;BME280_humidity;BME280_pressure;Samples;Min_cycle;Max_cycle;Signal;HPM_P1;HPM_P2
2022/07/09 00:01:53;;;;;;;2.60;1.87;;;24.70;49.00;;;;;;5068987;28;20611;-49
2022/07/09 00:04:33;;;;;;;1.70;1.60;;;24.70;49.00;;;;;;5087663;28;20577;-48
2022/07/09 00:07:12;;;;;;;2.67;1.63;;;24.70;49.00;;;;;;5070360;28;20538;-49
2022/07/09 00:09:52;;;;;;;1.70;1.60;;;24.70;48.90;;;;;;5121967;27;21120;-50
2022/07/09 00:12:32;;;;;;;1.90;1.80;;;24.70;49.00;;;;;;5095545;27;20549;-50
2022/07/09 00:15:12;;;;;;;2.63;1.67;;;24.70;49.00;;;;;;5086395;27;20929;-49
2022/07/09 00:17:52;;;;;;;2.77;1.60;;;24.70;49.00;;;;;;5067578;28;20590;-47
2022/07/09 00:20:31;;;;;;;2.63;1.57;;;24.70;49.00;;;;;;5088255;27;20574;-49
2022/07/09 00:23:11;;;;;;;1.50;1.40;;;24.70;49.10;;;;;;5056479;27;20538;-49
2022/07/09 00:25:52;;;;;;;2.60;2.00;;;24.70;49.00;;;;;;5100691;27;20593;-48
2022/07/09 00:28:33;;;;;;;1.73;1.63;;;24.70;49.10;;;;;;5068270;27;20560;-51
2022/07/09 00:31:14;;;;;;;1.90;1.80;;;24.70;49.10;;;;;;5085481;28;21050;-48
2022/07/09 00:33:54;;;;;;;1.43;1.33;;;24.70;49.10;;;;;;5087916;27;20524;-49
2022/07/09 00:36:35;;;;;;;1.87;1.73;;;24.70;49.00;;;;;;5065694;27;20591;-48
2022/07/09 00:39:15;;;;;;;2.33;1.80;;;24.70;49.00;;;;;;5081199;27;20593;-49
2022/07/09 00:42:05;;;;;;;2.60;1.90;;;24.70;49.00;;;;;;5096366;27;21074;-48
2022/07/09 00:44:46;;;;;;;1.93;1.80;;;24.70;49.00;;;;;;5104625;27;20522;-48
2022/07/09 00:47:27;;;;;;;2.40;1.67;;;24.70;49.10;;;;;;5110859;27;20607;-48
2022/07/09 00:50:09;;;;;;;1.63;1.43;;;24.70;49.00;;;;;;5058468;28;20580;-50
2022/07/09 00:52:49;;;;;;;1.77;1.40;;;24.70;49.00;;;;;;5066197;28;20540;-49
2022/07/09 00:55:30;;;;;;;2.43;1.73;;;24.70;49.00;;;;;;5072786;27;20595;-50
2022/07/09 00:58:11;;;;;;;3.40;1.73;;;24.70;49.00;;;;;;5089764;27;20544;-51
2022/07/09 01:00:52;;;;;;;1.73;1.47;;;24.70;49.00;;;;;;5110476;27;20568;-51
2022/07/09 01:03:33;;;;;;;3.30;2.13;;;24.70;49.00;;;;;;5054369;27;20895;-47
2022/07/09 01:06:15;;;;;;;1.90;1.73;;;24.70;49.00;;;;;;5079316;27;21006;-52
2022/07/09 01:08:55;;;;;;;2.10;1.77;;;24.60;48.90;;;;;;5091308;27;20578;-50
2022/07/09 01:11:34;;;;;;;2.90;1.80;;;24.70;49.00;;;;;;5137802;27;1227928;-49
2022/07/09 01:14:15;;;;;;;1.83;1.70;;;24.60;48.90;;;;;;5075077;28;20579;-48
2022/07/09 01:17:00;;;;;;;2.23;1.70;;;24.70;49.00;;;;;;5057599;27;21133;-48
2022/07/09 01:19:41;;;;;;;1.80;1.70;;;24.60;48.90;;;;;;5068012;27;20515;-48
2022/07/09 01:22:22;;;;;;;2.83;1.73;;;24.70;49.10;;;;;;5069849;27;21134;-48
2022/07/09 01:25:02;;;;;;;1.90;1.63;;;24.70;49.10;;;;;;5108069;27;1366622;-49
2022/07/09 01:27:42;;;;;;;2.63;2.03;;;24.60;49.00;;;;;;5052252;28;20590;-47
2022/07/09 01:30:29;;;;;;;1.50;1.40;;;24.60;49.10;;;;;;5128834;27;20931;-51
2022/07/09 01:33:09;;;;;;;2.67;1.80;;;24.60;49.10;;;;;;5059207;27;20557;-51
2022/07/09 01:35:49;;;;;;;1.67;1.57;;;24.60;49.10;;;;;;5106830;27;20542;-48
2022/07/09 01:38:31;;;;;;;2.37;2.00;;;24.60;49.00;;;;;;5055077;27;20553;-49
2022/07/09 01:41:12;;;;;;;1.83;1.67;;;24.60;48.90;;;;;;5075227;28;20571;-48
2022/07/09 01:43:52;;;;;;;1.80;1.70;;;24.60;48.90;;;;;;5069806;27;20575;-49
2022/07/09 01:46:32;;;;;;;2.90;1.70;;;24.60;48.90;;;;;;5116552;27;21071;-51
2022/07/09 01:49:11;;;;;;;2.20;2.10;;;24.60;48.90;;;;;;5095994;27;20574;-50
2022/07/09 01:51:51;;;;;;;3.10;1.97;;;24.60;48.90;;;;;;5046714;28;21054;-48
2022/07/09 01:54:31;;;;;;;2.33;1.73;;;24.60;48.90;;;;;;5072445;27;20952;-49
2022/07/09 01:57:11;;;;;;;2.30;2.10;;;24.60;48.90;;;;;;5088000;22;20619;-49
2022/07/09 01:59:51;;;;;;;1.63;1.53;;;24.60;49.10;;;;;;5071041;28;20575;-48
2022/07/09 02:02:31;;;;;;;2.17;1.97;;;24.60;48.90;;;;;;5106982;27;20539;-47
2022/07/09 02:05:09;;;;;;;3.03;1.65;;;24.60;49.00;;;;;;5125369;27;1205540;-49
2022/07/09 02:07:50;;;;;;;1.90;1.80;;;24.60;48.90;;;;;;5064690;28;20536;-49
2022/07/09 02:10:30;;;;;;;2.03;1.77;;;24.60;48.90;;;;;;5128068;27;20525;-49
2022/07/09 02:13:12;;;;;;;2.13;1.70;;;24.60;49.00;;;;;;5079918;27;20541;-48
2022/07/09 02:15:53;;;;;;;3.50;1.57;;;24.60;49.00;;;;;;5085281;28;20581;-48
2022/07/09 02:18:32;;;;;;;1.57;1.47;;;24.60;49.00;;;;;;5057795;27;20546;-48
2022/07/09 02:21:14;;;;;;;2.60;2.40;;;24.60;49.10;;;;;;5127806;27;20594;-50
2022/07/09 02:23:58;;;;;;;1.80;1.70;;;24.60;50.20;;;;;;5049831;28;20668;-48
2022/07/09 02:26:39;;;;;;;2.83;2.10;;;24.60;48.90;;;;;;5064851;27;20604;-48
2022/07/09 02:29:20;;;;;;;1.70;1.60;;;24.60;49.00;;;;;;5076533;28;20512;-47
2022/07/09 02:32:00;;;;;;;2.00;1.77;;;24.60;48.90;;;;;;5072557;28;20592;-47
2022/07/09 02:34:39;;;;;;;2.00;1.80;;;24.50;48.80;;;;;;5073506;28;20575;-47
2022/07/09 02:37:19;;;;;;;2.50;2.30;;;24.60;48.90;;;;;;5064168;27;20542;-48
2022/07/09 02:39:59;;;;;;;1.85;1.60;;;24.50;48.90;;;;;;5107846;27;20463;-48
2022/07/09 02:42:39;;;;;;;2.43;1.90;;;24.50;48.90;;;;;;5060607;28;20538;-47
2022/07/09 02:45:19;;;;;;;1.50;1.40;;;24.50;48.80;;;;;;5114721;27;20591;-48
2022/07/09 02:47:58;;;;;;;2.63;2.27;;;24.50;48.80;;;;;;5105912;27;20541;-50
2022/07/09 02:50:38;;;;;;;2.10;1.83;;;24.50;48.80;;;;;;5129103;27;20585;-47
2022/07/09 02:53:18;;;;;;;3.53;2.13;;;24.50;48.90;;;;;;5064769;28;20657;-47
2022/07/09 02:56:00;;;;;;;1.80;1.30;;;24.50;48.90;;;;;;5087905;28;20522;-47
2022/07/09 02:58:41;;;;;;;1.83;1.50;;;24.50;48.90;;;;;;5059412;27;20896;-67
2022/07/09 03:01:22;;;;;;;1.83;1.73;;;24.50;48.90;;;;;;5087267;27;20523;-46
2022/07/09 03:04:04;;;;;;;1.70;1.60;;;24.50;48.90;;;;;;5087193;27;20542;-47
2022/07/09 03:06:45;;;;;;;1.77;1.67;;;24.50;48.90;;;;;;5073851;27;20593;-48
2022/07/09 03:09:25;;;;;;;3.50;1.90;;;24.50;48.90;;;;;;5101604;27;20958;-51
2022/07/09 03:12:06;;;;;;;1.80;1.70;;;24.50;49.00;;;;;;5121159;27;20587;-49
2022/07/09 03:14:46;;;;;;;1.73;1.63;;;24.50;49.00;;;;;;5078606;28;20869;-48
2022/07/09 03:17:26;;;;;;;1.43;1.33;;;24.50;48.90;;;;;;5026271;28;20553;-48
2022/07/09 03:20:09;;;;;;;1.83;1.67;;;24.50;49.00;;;;;;5067267;28;20601;-49
2022/07/09 03:22:49;;;;;;;2.93;2.03;;;24.50;48.90;;;;;;5081951;27;20588;-47
2022/07/09 03:25:29;;;;;;;2.30;2.10;;;24.50;48.90;;;;;;5081561;28;20595;-48
2022/07/09 03:28:10;;;;;;;2.03;1.93;;;24.50;49.00;;;;;;5068069;27;21074;-48
2022/07/09 03:30:52;;;;;;;1.90;1.77;;;24.50;49.00;;;;;;5110645;27;20566;-50
2022/07/09 03:33:33;;;;;;;1.87;1.60;;;24.50;48.90;;;;;;5040399;27;20966;-47
2022/07/09 03:36:15;;;;;;;2.37;1.87;;;24.50;48.90;;;;;;5097538;27;20520;-49
2022/07/09 03:38:56;;;;;;;1.60;1.50;;;24.50;49.00;;;;;;5074150;27;20585;-49
2022/07/09 03:41:37;;;;;;;2.10;1.90;;;24.50;49.10;;;;;;5113115;27;20635;-47
2022/07/09 03:44:19;;;;;;;2.00;1.80;;;24.50;49.10;;;;;;5074026;27;20548;-48
2022/07/09 03:47:00;;;;;;;1.57;1.33;;;24.40;48.90;;;;;;5094455;27;20958;-48
2022/07/09 03:49:42;;;;;;;1.60;1.50;;;24.40;48.80;;;;;;5109167;27;20746;-47
2022/07/09 03:52:23;;;;;;;2.43;2.00;;;24.40;48.80;;;;;;5078733;27;20537;-49
2022/07/09 03:55:05;;;;;;;2.40;1.50;;;24.40;48.90;;;;;;5050748;27;20542;-49
2022/07/09 03:57:50;;;;;;;1.80;1.70;;;24.40;48.90;;;;;;5066659;28;20597;-67
2022/07/09 04:00:32;;;;;;;2.57;1.80;;;24.40;49.00;;;;;;5078876;28;20954;-48
2022/07/09 04:03:13;;;;;;;1.13;1.13;;;24.40;48.90;;;;;;5052031;27;20627;-46
2022/07/09 04:05:53;;;;;;;1.80;1.70;;;24.40;49.00;;;;;;5075610;28;20611;-48
2022/07/09 04:08:33;;;;;;;2.13;1.93;;;24.40;49.00;;;;;;5056828;27;20550;-48
2022/07/09 04:11:14;;;;;;;2.13;1.97;;;24.40;49.00;;;;;;5121609;27;20531;-49
2022/07/09 04:13:54;;;;;;;1.83;1.70;;;24.40;49.00;;;;;;5110153;27;20641;-49
2022/07/09 04:16:34;;;;;;;2.10;1.90;;;24.40;49.00;;;;;;5121348;27;20869;-48
2022/07/09 04:19:14;;;;;;;1.63;1.50;;;24.40;49.00;;;;;;5072008;28;20537;-49
2022/07/09 04:21:55;;;;;;;1.73;1.53;;;24.40;49.10;;;;;;5112616;27;20607;-48
2022/07/09 04:24:35;;;;;;;3.40;1.90;;;24.40;49.00;;;;;;5071799;28;20560;-48
2022/07/09 04:27:16;;;;;;;1.93;1.80;;;24.30;48.90;;;;;;5103591;27;20603;-49
2022/07/09 04:29:57;;;;;;;1.90;1.80;;;24.40;49.00;;;;;;5128145;27;20607;-48
2022/07/09 04:32:39;;;;;;;2.47;1.53;;;24.30;48.90;;;;;;5061027;27;20689;-47
2022/07/09 04:35:19;;;;;;;1.97;1.47;;;24.40;49.00;;;;;;5127840;27;20527;-47
2022/07/09 04:38:00;;;;;;;2.83;1.53;;;24.30;49.00;;;;;;5086085;27;20545;-51
2022/07/09 04:40:42;;;;;;;1.87;1.77;;;24.30;48.90;;;;;;5107508;27;20527;-47
2022/07/09 04:43:23;;;;;;;1.63;1.33;;;24.30;49.00;;;;;;5075900;27;20601;-49
2022/07/09 04:46:03;;;;;;;1.90;1.80;;;24.30;48.90;;;;;;5125442;27;20642;-54
2022/07/09 04:48:44;;;;;;;1.93;1.80;;;24.30;48.90;;;;;;5079012;27;20547;-47
2022/07/09 04:51:25;;;;;;;2.23;1.83;;;24.30;48.90;;;;;;5085997;27;20524;-48
2022/07/09 04:54:06;;;;;;;1.60;1.50;;;24.30;49.00;;;;;;5074306;28;20546;-46
2022/07/09 04:56:47;;;;;;;2.17;1.73;;;24.30;49.00;;;;;;5106103;27;20606;-49
2022/07/09 04:59:27;;;;;;;1.50;1.40;;;24.30;48.90;;;;;;5128799;27;20591;-49
2022/07/09 05:02:08;;;;;;;3.47;2.10;;;24.30;49.00;;;;;;5058021;28;20543;-48
2022/07/09 05:04:48;;;;;;;4.20;1.97;;;24.30;49.10;;;;;;5059406;27;20595;-48
2022/07/09 05:07:28;;;;;;;2.90;2.10;;;24.30;49.00;;;;;;5051621;28;20642;-49
2022/07/09 05:10:10;;;;;;;1.63;1.53;;;24.30;49.00;;;;;;5080926;28;20541;-48
2022/07/09 05:12:51;;;;;;;1.53;1.30;;;24.30;49.10;;;;;;5082155;27;20542;-47
2022/07/09 05:15:32;;;;;;;2.23;2.03;;;24.30;49.10;;;;;;5071759;28;20942;-48
2022/07/09 05:18:13;;;;;;;2.10;2.00;;;24.30;49.10;;;;;;5080226;27;20568;-49
2022/07/09 05:20:55;;;;;;;1.73;1.63;;;24.30;49.00;;;;;;5128108;27;20529;-48
2022/07/09 05:23:37;;;;;;;1.53;1.43;;;24.30;49.10;;;;;;5107400;27;20554;-48
2022/07/09 05:26:19;;;;;;;2.73;1.87;;;24.20;49.00;;;;;;5101508;27;20558;-49
2022/07/09 05:29:00;;;;;;;1.90;1.70;;;24.30;49.10;;;;;;5077175;28;20575;-48
2022/07/09 05:31:41;;;;;;;2.27;2.07;;;24.20;49.00;;;;;;5066611;28;20588;-47
2022/07/09 05:34:22;;;;;;;2.90;2.60;;;24.30;49.10;;;;;;5119217;27;20588;-47
2022/07/09 05:37:03;;;;;;;2.27;2.00;;;24.20;49.00;;;;;;5120639;27;21067;-48
2022/07/09 05:39:51;;;;;;;3.23;2.17;;;24.20;49.00;;;;;;5104019;27;20539;-47
2022/07/09 05:42:33;;;;;;;2.63;2.27;;;24.20;49.10;;;;;;5077222;27;20663;-48
2022/07/09 05:45:14;;;;;;;2.70;2.50;;;24.20;49.10;;;;;;5126996;27;20507;-48
2022/07/09 05:47:54;;;;;;;2.60;2.13;;;24.20;49.10;;;;;;5077452;27;20574;-47
2022/07/09 05:50:35;;;;;;;2.70;2.50;;;24.20;49.10;;;;;;5106612;27;20556;-48
2022/07/09 05:53:14;;;;;;;4.53;2.70;;;24.20;49.10;;;;;;5053513;28;20548;-47
2022/07/09 05:55:54;;;;;;;2.70;2.50;;;24.20;49.20;;;;;;5089622;27;20541;-48
2022/07/09 05:58:34;;;;;;;2.80;2.17;;;24.20;49.30;;;;;;5071218;27;20543;-47
2022/07/09 06:01:16;;;;;;;3.03;2.83;;;24.20;49.40;;;;;;5074898;28;20526;-48
2022/07/09 06:04:02;;;;;;;3.10;2.50;;;24.20;49.40;;;;;;5088299;27;20582;-48
2022/07/09 06:06:42;;;;;;;2.80;2.20;;;24.20;49.50;;;;;;5069912;28;20556;-49
2022/07/09 06:09:22;;;;;;;3.53;2.80;;;24.20;49.50;;;;;;5127540;27;20525;-50
2022/07/09 06:12:04;;;;;;;3.10;2.80;;;24.20;49.60;;;;;;5095522;27;21061;-47
2022/07/09 06:14:44;;;;;;;3.50;2.80;;;24.20;49.70;;;;;;5084253;28;20933;-48
2022/07/09 06:17:26;;;;;;;2.60;2.40;;;24.20;49.70;;;;;;5081157;27;21050;-49
2022/07/09 06:20:07;;;;;;;3.13;2.83;;;24.20;49.70;;;;;;5128867;27;20591;-47
2022/07/09 06:22:47;;;;;;;3.33;3.03;;;24.20;49.90;;;;;;5067162;27;20525;-48
2022/07/09 06:25:28;;;;;;;3.13;2.87;;;24.20;49.80;;;;;;5118658;27;20534;-48
2022/07/09 06:28:08;;;;;;;4.67;2.83;;;24.20;50.00;;;;;;5079325;27;20587;-49
2022/07/09 06:30:48;;;;;;;3.90;3.30;;;24.20;50.10;;;;;;5110305;27;20577;-50
2022/07/09 06:33:28;;;;;;;3.40;3.10;;;24.20;50.20;;;;;;5108172;27;20952;-46
2022/07/09 06:36:09;;;;;;;4.53;3.03;;;24.20;50.20;;;;;;5068185;28;20539;-48
2022/07/09 06:41:48;;;;;;;5.30;3.93;;;24.20;50.20;;;;;;5119613;27;20544;-49
2022/07/09 06:44:29;;;;;;;4.23;3.67;;;24.20;50.40;;;;;;5073187;27;21112;-47
2022/07/09 06:47:11;;;;;;;4.80;4.30;;;24.20;50.40;;;;;;5064516;28;20608;-48
2022/07/09 06:49:52;;;;;;;4.07;3.77;;;24.20;50.50;;;;;;5127988;27;20568;-50
2022/07/09 06:52:32;;;;;;;3.73;3.40;;;24.10;50.50;;;;;;5082638;27;20546;-48
2022/07/09 06:55:13;;;;;;;3.90;3.60;;;24.20;50.70;;;;;;5055071;27;20540;-47
2022/07/09 06:57:55;;;;;;;7.03;3.43;;;24.10;50.70;;;;;;5078879;27;20544;-48
2022/07/09 07:00:34;;;;;;;4.07;3.77;;;24.10;50.60;;;;;;5126800;27;21088;-48
2022/07/09 07:03:16;;;;;;;5.20;4.70;;;24.20;50.90;;;;;;5078060;27;20978;-50
2022/07/09 07:05:56;;;;;;;4.53;3.73;;;24.10;50.80;;;;;;5070210;27;20596;-47
2022/07/09 07:08:37;;;;;;;4.87;3.73;;;24.10;50.80;;;;;;5064805;27;20552;-48
2022/07/09 07:11:19;;;;;;;3.80;3.50;;;24.10;50.80;;;;;;5082681;28;20587;-48
2022/07/09 07:14:00;;;;;;;2.80;2.60;;;24.10;50.70;;;;;;5079418;27;20524;-47
2022/07/09 07:16:40;;;;;;;3.07;2.70;;;24.20;50.80;;;;;;5111889;27;21060;-49
2022/07/09 07:19:21;;;;;;;2.13;2.00;;;24.10;50.60;;;;;;5099470;27;20536;-47
2022/07/09 07:22:03;;;;;;;3.10;2.27;;;24.10;50.50;;;;;;5119269;27;20522;-50
2022/07/09 07:24:44;;;;;;;3.47;2.50;;;24.20;51.80;;;;;;5112705;27;20588;-49
2022/07/09 07:27:25;;;;;;;3.40;2.20;;;24.20;50.50;;;;;;5102791;27;20616;-48
2022/07/09 07:30:07;;;;;;;2.87;2.17;;;24.20;50.40;;;;;;5088854;27;20529;-49
2022/07/09 07:32:47;;;;;;;5.10;2.10;;;24.20;50.60;;;;;;5079716;27;20605;-50
2022/07/09 07:35:25;;;;;;;2.33;2.17;;;24.20;50.40;;;;;;5139042;27;1208024;-47
2022/07/09 07:38:07;;;;;;;2.30;2.10;;;24.20;50.40;;;;;;5064795;28;20600;-48
2022/07/09 07:40:48;;;;;;;1.60;1.50;;;24.20;50.40;;;;;;5086701;28;20937;-47
2022/07/09 07:43:28;;;;;;;3.50;2.00;;;24.20;50.30;;;;;;5072497;27;20540;-49
2022/07/09 07:46:09;;;;;;;2.47;2.27;;;24.20;50.30;;;;;;5066799;28;21158;-49
2022/07/09 07:48:50;;;;;;;2.40;1.70;;;24.20;50.30;;;;;;5070323;27;20567;-46
2022/07/09 07:51:30;;;;;;;2.80;2.60;;;24.20;50.20;;;;;;5062631;28;20532;-48
2022/07/09 07:54:10;;;;;;;2.83;2.00;;;24.20;50.30;;;;;;5109760;27;20530;-47
2022/07/09 07:56:51;;;;;;;3.10;2.27;;;24.20;50.20;;;;;;5121980;27;20535;-48
2022/07/09 07:59:38;;;;;;;1.80;1.70;;;24.20;50.30;;;;;;5082201;28;20594;-47
2022/07/09 08:02:19;;;;;;;3.37;2.60;;;24.20;51.50;;;;;;5100851;27;20599;-49
2022/07/09 08:05:00;;;;;;;2.17;2.03;;;24.20;50.20;;;;;;5067793;28;20595;-48
2022/07/09 08:07:40;;;;;;;3.97;2.00;;;24.20;50.20;;;;;;5067743;28;20603;-47
2022/07/09 08:10:23;;;;;;;2.07;1.90;;;24.20;50.20;;;;;;5063760;28;20671;-48
2022/07/09 08:13:03;;;;;;;4.20;1.87;;;24.20;50.20;;;;;;5026333;27;20672;-49
2022/07/09 08:15:45;;;;;;;2.70;2.27;;;24.20;50.20;;;;;;5076509;28;20596;-48
2022/07/09 08:18:26;;;;;;;1.80;1.70;;;24.20;50.20;;;;;;5047030;28;21133;-48
2022/07/09 08:21:07;;;;;;;2.30;2.20;;;24.20;50.10;;;;;;5067445;27;20741;-47
2022/07/09 08:23:53;;;;;;;2.10;1.90;;;24.20;51.30;;;;;;5054629;27;20558;-48
2022/07/09 08:26:35;;;;;;;3.10;2.07;;;24.20;50.20;;;;;;5077798;27;20579;-47
2022/07/09 08:29:16;;;;;;;2.80;2.50;;;24.20;50.10;;;;;;5078299;27;20532;-46
2022/07/09 08:31:58;;;;;;;1.70;1.60;;;24.20;50.10;;;;;;5077956;27;20537;-49
2022/07/09 08:34:38;;;;;;;2.75;1.48;;;24.20;50.10;;;;;;5132926;27;1208088;-51
2022/07/09 08:37:19;;;;;;;2.20;2.00;;;24.20;50.10;;;;;;5077077;27;20605;-47
2022/07/09 08:39:59;;;;;;;5.43;2.23;;;24.20;50.00;;;;;;5133441;27;1217588;-47
2022/07/09 08:42:40;;;;;;;1.87;1.77;;;24.20;50.10;;;;;;5157991;27;20559;-48
2022/07/09 08:45:21;;;;;;;2.30;2.10;;;24.20;50.10;;;;;;5123792;27;21102;-50
2022/07/09 08:48:02;;;;;;;1.80;1.70;;;24.20;50.10;;;;;;5078295;27;20555;-45
2022/07/09 08:50:43;;;;;;;1.83;1.60;;;24.20;50.10;;;;;;5112166;27;20522;-47
2022/07/09 08:53:33;;;;;;;3.77;1.90;;;24.20;50.10;;;;;;5066899;27;21159;-49
2022/07/09 08:56:14;;;;;;;2.77;1.60;;;24.20;50.10;;;;;;5077121;28;21110;-47
2022/07/09 08:58:55;;;;;;;2.47;2.13;;;24.20;50.10;;;;;;5071008;28;20518;-48
2022/07/09 09:01:35;;;;;;;2.10;1.93;;;24.20;50.10;;;;;;5083258;28;20578;-48
2022/07/09 09:04:17;;;;;;;1.77;1.43;;;24.20;50.10;;;;;;5110246;27;20571;-48
2022/07/09 09:06:57;;;;;;;2.13;1.70;;;24.20;50.10;;;;;;5108934;27;20613;-48
2022/07/09 09:09:37;;;;;;;1.97;1.73;;;24.20;50.10;;;;;;5077024;28;20527;-50
2022/07/09 09:12:28;;;;;;;2.30;2.10;;;24.20;50.10;;;;;;5103825;27;20529;-48
2022/07/09 09:15:09;;;;;;;2.93;1.63;;;24.20;50.10;;;;;;5081503;28;20694;-48
2022/07/09 09:17:50;;;;;;;1.70;1.60;;;24.20;50.10;;;;;;5034377;28;21079;-48
2022/07/09 09:20:31;;;;;;;1.73;1.50;;;24.20;50.00;;;;;;5127851;27;20513;-48
2022/07/09 09:23:17;;;;;;;1.50;1.40;;;24.20;50.00;;;;;;5148949;27;21023;-49
2022/07/09 09:26:09;;;;;;;3.47;1.30;;;24.20;50.00;;;;;;5111822;27;20549;-48
2022/07/09 09:28:51;;;;;;;1.70;1.60;;;24.30;50.10;;;;;;5071002;28;21043;-49
2022/07/09 09:31:34;;;;;;;2.13;1.93;;;24.20;50.00;;;;;;5088161;27;20593;-49
2022/07/09 09:34:16;;;;;;;1.63;1.50;;;24.20;50.00;;;;;;5123873;27;20518;-49
2022/07/09 09:36:57;;;;;;;2.13;2.00;;;24.20;50.00;;;;;;5095643;27;20570;-48
2022/07/09 09:39:39;;;;;;;1.83;1.60;;;24.20;50.00;;;;;;5078555;28;20591;-48
2022/07/09 09:42:23;;;;;;;2.10;1.70;;;24.20;50.00;;;;;;5065276;27;20662;-49
2022/07/09 09:45:03;;;;;;;2.63;1.93;;;24.20;49.90;;;;;;5052876;27;20579;-49
2022/07/09 09:47:48;;;;;;;1.70;1.60;;;24.20;50.00;;;;;;5054759;27;20588;-49
2022/07/09 09:50:29;;;;;;;1.77;1.67;;;24.20;50.00;;;;;;5133164;27;20574;-49
2022/07/09 09:53:12;;;;;;;1.97;1.73;;;24.20;50.00;;;;;;5070221;27;20943;-49
2022/07/09 09:55:54;;;;;;;1.87;1.60;;;24.20;50.00;;;;;;5106334;27;21065;-48
2022/07/09 09:58:37;;;;;;;3.20;1.97;;;24.20;50.00;;;;;;5053308;27;21058;-49
2022/07/09 10:01:18;;;;;;;1.83;1.70;;;24.20;50.00;;;;;;5117606;27;20568;-47
2022/07/09 10:04:00;;;;;;;1.70;1.60;;;24.20;50.00;;;;;;5126950;27;20525;-50
2022/07/09 10:06:41;;;;;;;2.03;1.87;;;24.20;50.00;;;;;;5066270;28;20545;-48
2022/07/09 10:09:22;;;;;;;3.70;1.90;;;24.20;49.90;;;;;;5087748;27;21200;-47
2022/07/09 10:12:04;;;;;;;2.47;1.50;;;24.20;50.00;;;;;;5078216;27;20594;-49
2022/07/09 10:14:45;;;;;;;1.53;1.43;;;24.20;50.00;;;;;;5059503;27;20953;-49
2022/07/09 10:17:27;;;;;;;1.77;1.67;;;24.20;50.00;;;;;;5059320;28;20553;-49
2022/07/09 10:20:10;;;;;;;1.90;1.80;;;24.20;49.90;;;;;;5105214;27;20612;-48
2022/07/09 10:22:50;;;;;;;1.80;1.70;;;24.20;49.90;;;;;;5066164;27;20545;-50
2022/07/09 10:25:44;;;;;;;1.50;1.40;;;24.30;49.90;;;;;;5005101;28;20611;-48
2022/07/09 10:28:25;;;;;;;1.67;1.57;;;24.30;50.00;;;;;;5056304;27;21057;-49
2022/07/09 10:31:09;;;;;;;1.90;1.80;;;24.30;49.90;;;;;;5075561;27;20583;-48
2022/07/09 10:34:01;;;;;;;1.60;1.50;;;24.30;49.80;;;;;;5078811;27;20593;-49
2022/07/09 10:36:58;;;;;;;1.63;1.53;;;24.30;49.80;;;;;;5075286;28;21040;-49
2022/07/09 10:39:39;;;;;;;1.67;1.57;;;24.30;49.80;;;;;;5071729;27;20529;-49
2022/07/09 10:42:23;;;;;;;1.70;1.60;;;24.30;49.70;;;;;;5049349;27;20594;-48
2022/07/09 10:45:04;;;;;;;1.40;1.30;;;24.30;49.60;;;;;;5129942;27;1250885;-49
2022/07/09 10:47:46;;;;;;;1.40;1.30;;;24.30;49.40;;;;;;5059257;27;20546;-49
2022/07/09 10:50:30;;;;;;;2.20;1.80;;;24.30;49.50;;;;;;5095525;27;20614;-49
2022/07/09 10:53:12;;;;;;;1.23;1.13;;;24.30;49.40;;;;;;5081540;27;20977;-49
2022/07/09 10:55:53;;;;;;;1.57;1.47;;;24.30;49.50;;;;;;5069232;28;20955;-47
2022/07/09 10:58:33;;;;;;;1.63;1.53;;;24.30;49.50;;;;;;5089371;27;20617;-48
2022/07/09 11:01:21;;;;;;;1.60;1.50;;;24.30;49.50;;;;;;5103697;27;20588;-48
2022/07/09 11:04:02;;;;;;;1.73;1.47;;;24.30;49.50;;;;;;5074361;27;21054;-49
2022/07/09 11:06:48;;;;;;;2.70;1.53;;;24.30;49.30;;;;;;5104969;27;1244428;-49
2022/07/09 11:09:30;;;;;;;2.13;1.80;;;24.40;49.40;;;;;;5098736;27;20546;-49
2022/07/09 11:12:22;;;;;;;1.63;1.53;;;24.40;49.50;;;;;;5055434;27;20584;-48
2022/07/09 11:15:04;;;;;;;1.60;1.50;;;24.40;49.40;;;;;;5120466;27;20538;-49
2022/07/09 11:17:45;;;;;;;1.73;1.63;;;24.40;48.20;;;;;;5059256;27;20594;-50
2022/07/09 11:20:27;;;;;;;3.30;2.60;;;24.40;48.00;;;;;;5113148;27;20529;-48
2022/07/09 11:23:09;;;;;;;3.80;1.47;;;24.40;48.60;;;;;;5070934;27;20681;-47
2022/07/09 11:25:51;;;;;;;2.17;2.00;;;24.40;48.60;;;;;;4994036;27;20542;-48
2022/07/09 11:28:33;;;;;;;3.40;2.10;;;24.50;49.00;;;;;;5073193;27;20950;-48
2022/07/09 11:31:14;;;;;;;3.10;2.80;;;24.50;48.80;;;;;;5074008;27;21129;-47
2022/07/09 11:34:13;;;;;;;5.80;2.27;;;24.60;49.00;;;;;;4988121;27;20618;-48
2022/07/09 11:36:56;;;;;;;2.33;1.80;;;24.60;48.30;;;;;;5099791;27;21027;-48
2022/07/09 11:39:37;;;;;;;2.13;1.93;;;24.60;49.80;;;;;;5075059;28;21102;-49
2022/07/09 11:42:20;;;;;;;2.87;2.20;;;24.60;48.70;;;;;;5069589;27;20702;-47
2022/07/09 11:45:02;;;;;;;2.50;2.23;;;24.50;48.90;;;;;;5099532;27;20552;-48
2022/07/09 11:47:45;;;;;;;1.57;1.40;;;24.50;49.10;;;;;;5099598;27;21026;-48
2022/07/09 11:50:27;;;;;;;2.07;1.87;;;24.50;49.00;;;;;;5105374;27;20587;-49
2022/07/09 11:53:20;;;;;;;2.10;1.90;;;24.50;49.10;;;;;;5063914;27;20627;-48
2022/07/09 11:56:01;;;;;;;1.97;1.87;;;24.50;49.10;;;;;;5080421;28;20955;-48
2022/07/09 11:58:50;;;;;;;1.90;1.80;;;24.50;49.10;;;;;;5106529;27;20571;-49
2022/07/09 12:01:33;;;;;;;7.10;2.40;;;24.50;49.40;;;;;;5069038;28;20545;-48
2022/07/09 12:04:20;;;;;;;1.80;1.70;;;24.50;49.40;;;;;;5073852;27;20540;-48
2022/07/09 12:07:01;;;;;;;4.13;2.43;;;24.50;49.20;;;;;;5072859;28;20543;-49
2022/07/09 12:09:43;;;;;;;2.73;2.10;;;24.50;49.20;;;;;;5121349;27;20548;-50
2022/07/09 12:12:24;;;;;;;2.03;1.83;;;24.50;49.30;;;;;;5126118;27;20530;-48
2022/07/09 12:15:08;;;;;;;1.90;1.80;;;24.50;49.40;;;;;;5076784;27;20666;-49
2022/07/09 12:17:52;;;;;;;2.60;2.40;;;24.50;49.50;;;;;;5052425;27;20547;-48
2022/07/09 12:20:33;;;;;;;2.30;2.10;;;24.50;49.40;;;;;;5127930;27;20544;-49
2022/07/09 12:23:14;;;;;;;2.00;1.90;;;24.50;49.40;;;;;;5026782;27;20551;-49
2022/07/09 12:25:56;;;;;;;2.70;2.37;;;24.50;49.50;;;;;;5125190;27;20601;-47
2022/07/09 12:28:37;;;;;;;4.13;2.33;;;24.50;49.50;;;;;;5103713;27;20615;-49
2022/07/09 12:31:19;;;;;;;3.70;2.27;;;24.60;49.90;;;;;;5077422;27;20531;-49
2022/07/09 12:34:00;;;;;;;2.40;2.20;;;24.60;49.70;;;;;;5106589;27;20405;-49
2022/07/09 12:36:42;;;;;;;2.13;1.90;;;24.60;49.70;;;;;;5082373;27;21055;-48
2022/07/09 12:39:39;;;;;;;2.43;2.23;;;24.60;49.70;;;;;;5074650;27;20533;-47
2022/07/09 12:42:21;;;;;;;2.47;2.20;;;24.60;49.70;;;;;;5090740;27;20912;-49
2022/07/09 12:45:02;;;;;;;2.10;1.90;;;24.60;49.70;;;;;;5127833;27;20617;-49
2022/07/09 12:47:49;;;;;;;2.53;2.30;;;24.60;49.60;;;;;;5021479;27;20555;-48
2022/07/09 12:50:29;;;;;;;2.50;2.30;;;24.60;49.70;;;;;;5079036;28;20535;-48
2022/07/09 12:53:11;;;;;;;2.47;2.07;;;24.60;49.40;;;;;;5063121;27;20613;-48
2022/07/09 12:55:52;;;;;;;2.10;1.90;;;24.60;49.40;;;;;;5110424;27;20936;-49
2022/07/09 12:58:43;;;;;;;2.40;2.17;;;24.70;49.50;;;;;;5049549;27;20682;-49
2022/07/09 13:01:25;;;;;;;2.37;2.17;;;24.60;49.20;;;;;;5072325;28;20946;-49
2022/07/09 13:04:06;;;;;;;2.07;1.97;;;24.70;49.40;;;;;;5062945;27;20531;-48
2022/07/09 13:06:56;;;;;;;3.67;2.07;;;24.70;49.40;;;;;;4991304;27;21029;-49
2022/07/09 13:09:37;;;;;;;2.67;2.47;;;24.70;50.60;;;;;;5082637;27;20585;-47
2022/07/09 13:12:17;;;;;;;2.73;2.53;;;24.70;49.40;;;;;;5067724;28;20791;-49
2022/07/09 13:14:58;;;;;;;2.67;2.47;;;24.70;49.30;;;;;;5127756;27;20528;-48
2022/07/09 13:17:40;;;;;;;2.90;2.60;;;24.70;49.30;;;;;;5070882;28;20542;-47
2022/07/09 13:20:21;;;;;;;2.60;2.40;;;24.60;49.10;;;;;;5083248;27;20549;-49
2022/07/09 13:23:02;;;;;;;3.20;2.97;;;24.70;49.30;;;;;;5055818;27;20634;-47
2022/07/09 13:25:44;;;;;;;2.80;2.37;;;24.70;49.40;;;;;;5113973;27;20592;-48
2022/07/09 13:28:25;;;;;;;4.00;2.60;;;24.70;49.60;;;;;;5071835;27;20573;-48
2022/07/09 13:31:07;;;;;;;2.80;2.60;;;24.70;49.50;;;;;;5084625;28;20522;-48
2022/07/09 13:33:48;;;;;;;2.60;2.40;;;24.70;49.70;;;;;;5064850;27;20967;-49
2022/07/09 13:36:30;;;;;;;2.90;2.70;;;24.70;49.90;;;;;;5080166;27;20539;-49
2022/07/09 13:39:11;;;;;;;3.00;2.70;;;24.70;49.90;;;;;;5078935;27;20591;-49
2022/07/09 13:41:52;;;;;;;2.80;2.60;;;24.70;50.10;;;;;;5105943;27;20864;-49
2022/07/09 13:44:33;;;;;;;2.67;2.47;;;24.70;50.10;;;;;;5084028;27;21065;-48
2022/07/09 13:47:15;;;;;;;4.20;3.90;;;24.70;50.10;;;;;;5064832;27;20624;-47
2022/07/09 13:49:56;;;;;;;3.57;3.17;;;24.70;50.30;;;;;;5102506;27;20535;-48
2022/07/09 13:52:38;;;;;;;4.90;4.57;;;24.70;50.60;;;;;;5072528;27;20548;-49
2022/07/09 13:55:21;;;;;;;5.23;3.47;;;24.60;51.10;;;;;;5065006;28;20538;-49
2022/07/09 13:58:02;;;;;;;3.63;3.33;;;24.70;51.10;;;;;;5039898;27;20603;-49
2022/07/09 14:00:44;;;;;;;2.97;2.73;;;24.70;51.10;;;;;;5086785;27;20520;-47
2022/07/09 14:03:25;;;;;;;4.13;3.63;;;24.70;51.20;;;;;;5114600;27;20921;-49